createdAt,value
2022-08-20T00:01:37.909Z,22.50
2022-08-20T00:05:46.027Z,22.20
2022-08-20T00:09:47.136Z,22.50
2022-08-20T00:13:51.543Z,22.40
2022-08-20T00:17:53.443Z,22.00
2022-08-20T00:21:55.723Z,22.10
2022-08-20T00:25:57.853Z,22.40
2022-08-20T00:29:58.934Z,22.30
2022-08-20T00:33:59.937Z,22.40
2022-08-20T00:38:01.347Z,22.20
2022-08-20T00:42:03.415Z,22.70
2022-08-20T00:46:14.507Z,23.30
2022-08-20T00:50:19.419Z,22.60
2022-08-20T00:54:24.498Z,22.20
2022-08-20T00:58:27.304Z,22.90
2022-08-20T01:02:31.111Z,22.40
2022-08-20T01:06:32.340Z,23.00
2022-08-20T01:10:37.105Z,23.30
2022-08-20T01:14:40.206Z,22.70
2022-08-20T01:18:42.424Z,23.30
2022-08-20T01:23:12.470Z,22.10
2022-08-20T01:27:14.419Z,22.60
2022-08-20T01:31:19.297Z,22.70
2022-08-20T01:35:22.926Z,22.60
2022-08-20T01:39:30.800Z,23.50
2022-08-20T01:43:36.973Z,22.40
2022-08-20T01:47:38.733Z,22.20
2022-08-20T01:51:38.637Z,22.60
2022-08-20T01:55:40.463Z,22.80
2022-08-20T01:59:42.698Z,22.40
2022-08-20T02:03:44.761Z,22.30
2022-08-20T02:07:46.828Z,22.60
2022-08-20T02:11:48.032Z,22.90
2022-08-20T02:15:48.974Z,22.50
2022-08-20T02:19:53.381Z,23.20
2022-08-20T02:23:55.378Z,22.10
2022-08-20T02:28:00.357Z,22.60
2022-08-20T02:32:24.519Z,23.30
2022-08-20T02:36:05.565Z,23.50
2022-08-20T02:40:09.642Z,23.60
2022-08-20T02:44:12.058Z,23.40
2022-08-20T02:48:20.399Z,22.60
2022-08-20T02:52:21.628Z,23.30
2022-08-20T02:56:22.659Z,22.20
2022-08-20T03:00:23.854Z,22.60
2022-08-20T03:04:24.953Z,22.40
2022-08-20T03:08:28.687Z,22.50
2022-08-20T03:12:29.793Z,22.80
2022-08-20T03:16:31.107Z,23.20
2022-08-20T03:20:32.637Z,23.00
2022-08-20T03:24:33.653Z,22.60
2022-08-20T03:28:35.038Z,23.30
2022-08-20T03:32:37.060Z,22.90
2022-08-20T03:36:38.065Z,22.90
2022-08-20T03:40:39.767Z,23.10
2022-08-20T03:44:40.802Z,23.70
2022-08-20T03:48:42.059Z,23.30
2022-08-20T03:52:43.173Z,23.50
2022-08-20T03:56:44.361Z,23.40
2022-08-20T04:00:48.363Z,23.30
2022-08-20T04:04:49.482Z,23.20
2022-08-20T04:08:51.002Z,23.20
2022-08-20T04:12:53.081Z,22.60
2022-08-20T04:16:54.438Z,22.90
2022-08-20T04:20:55.673Z,22.70
2022-08-20T04:24:56.659Z,23.10
2022-08-20T04:28:57.919Z,22.10
2022-08-20T04:32:59.141Z,22.40
2022-08-20T04:37:00.349Z,21.80
2022-08-20T04:41:01.462Z,21.20
2022-08-20T04:45:08.061Z,21.20
2022-08-20T04:49:09.262Z,21.60
2022-08-20T04:53:12.485Z,21.90
2022-08-20T04:57:13.489Z,21.40
2022-08-20T05:01:15.004Z,22.10
2022-08-20T05:05:16.047Z,21.40
2022-08-20T05:09:17.160Z,21.60
2022-08-20T05:13:18.787Z,21.60
2022-08-20T05:17:20.710Z,21.50
2022-08-20T05:21:21.820Z,21.60
2022-08-20T05:25:23.612Z,21.50
2022-08-20T05:29:24.724Z,21.20
2022-08-20T05:33:27.749Z,21.70
2022-08-20T05:37:30.655Z,22.40
2022-08-20T05:41:33.854Z,22.00
2022-08-20T05:45:36.869Z,21.20
2022-08-20T05:49:38.171Z,21.70
2022-08-20T05:53:39.285Z,21.10
2022-08-20T05:57:40.786Z,21.90
2022-08-20T06:01:42.543Z,22.00
2022-08-20T06:05:44.368Z,21.70
2022-08-20T06:09:45.703Z,21.90
2022-08-20T06:13:46.829Z,21.40
2022-08-20T06:17:58.158Z,21.80
2022-08-20T06:21:50.870Z,22.30
2022-08-20T06:25:52.308Z,22.40
2022-08-20T06:29:53.935Z,22.40
2022-08-20T06:33:55.245Z,22.40
2022-08-20T06:37:58.403Z,23.40
2022-08-20T06:41:59.491Z,24.60
2022-08-20T06:46:01.715Z,23.70
2022-08-20T06:50:07.258Z,23.70
2022-08-20T06:54:08.558Z,24.00
2022-08-20T06:58:32.798Z,23.20
2022-08-20T07:02:14.441Z,23.80
2022-08-20T07:06:17.453Z,24.00
2022-08-20T07:10:20.389Z,23.80
2022-08-20T07:14:21.681Z,23.80
2022-08-20T07:18:28.868Z,23.80
2022-08-20T07:22:26.634Z,23.90
2022-08-20T07:26:27.637Z,24.00
2022-08-20T07:30:56.940Z,24.00
2022-08-20T07:34:50.684Z,24.60
2022-08-20T07:38:51.914Z,23.60
2022-08-20T07:42:54.445Z,23.40
2022-08-20T07:46:57.805Z,23.40
2022-08-20T07:51:01.239Z,25.20
2022-08-20T07:55:08.786Z,26.10
2022-08-20T07:59:11.994Z,26.10
2022-08-20T08:03:13.550Z,25.10
2022-08-20T08:07:16.185Z,24.00
2022-08-20T08:11:18.740Z,25.00
2022-08-20T08:15:24.025Z,25.80
2022-08-20T08:19:27.863Z,25.30
2022-08-20T08:23:31.664Z,26.20
2022-08-20T08:27:33.714Z,26.40
2022-08-20T08:31:35.130Z,26.60
2022-08-20T08:35:42.004Z,27.20
2022-08-20T08:39:44.350Z,25.90
2022-08-20T08:43:49.227Z,26.90
2022-08-20T08:47:52.586Z,26.20
2022-08-20T08:52:04.379Z,26.70
2022-08-20T08:56:07.394Z,24.40
2022-08-20T09:00:15.812Z,23.90
2022-08-20T09:04:21.841Z,23.90
2022-08-20T09:08:27.140Z,23.40
2022-08-20T09:12:28.320Z,23.70
2022-08-20T09:16:30.052Z,23.10
2022-08-20T09:20:32.381Z,21.90
2022-08-20T09:24:33.810Z,21.90
2022-08-20T09:28:35.381Z,21.80
2022-08-20T09:32:38.174Z,21.60
2022-08-20T09:36:39.986Z,22.80
2022-08-20T09:40:41.237Z,22.80
2022-08-20T09:44:42.753Z,23.30
2022-08-20T09:48:43.835Z,24.30
2022-08-20T09:52:48.185Z,25.10
2022-08-20T09:56:51.463Z,25.80
2022-08-20T10:00:52.871Z,25.50
2022-08-20T10:04:54.235Z,25.20
2022-08-20T10:08:55.447Z,25.80
2022-08-20T10:12:56.439Z,26.00
2022-08-20T10:16:59.266Z,27.10
2022-08-20T10:21:01.405Z,26.80
2022-08-20T10:25:03.600Z,26.80
2022-08-20T10:29:04.699Z,25.20
2022-08-20T10:33:05.812Z,24.40
2022-08-20T10:37:07.456Z,24.30
2022-08-20T10:41:10.067Z,24.60
2022-08-20T10:45:13.775Z,25.40
2022-08-20T10:49:14.811Z,26.60
2022-08-20T10:53:16.813Z,27.30
2022-08-20T10:57:21.322Z,25.20
2022-08-20T11:01:32.854Z,27.50
2022-08-20T11:05:27.105Z,29.10
2022-08-20T11:09:28.323Z,28.50
2022-08-20T11:13:29.422Z,28.60
2022-08-20T11:17:34.345Z,29.10
2022-08-20T11:21:37.259Z,28.90
2022-08-20T11:25:38.371Z,28.50
2022-08-20T11:29:39.470Z,29.20
2022-08-20T11:33:42.379Z,29.20
2022-08-20T11:37:43.389Z,28.20
2022-08-20T11:41:45.830Z,28.00
2022-08-20T11:45:50.106Z,28.60
2022-08-20T11:50:00.289Z,28.90
2022-08-20T11:54:01.484Z,27.70
2022-08-20T11:58:03.999Z,27.80
2022-08-20T12:02:07.924Z,28.70
2022-08-20T12:06:08.115Z,28.80
2022-08-20T12:10:09.571Z,27.80
2022-08-20T12:14:10.719Z,28.20
2022-08-20T12:18:11.842Z,28.90
2022-08-20T12:22:20.393Z,30.30
2022-08-20T12:26:16.588Z,27.30
2022-08-20T12:30:21.005Z,29.10
2022-08-20T12:34:22.206Z,29.90
2022-08-20T12:38:23.252Z,30.80
2022-08-20T12:42:25.566Z,31.20
2022-08-20T12:46:26.580Z,33.00
2022-08-20T12:50:31.414Z,32.50
2022-08-20T12:54:31.239Z,32.20
2022-08-20T12:58:32.233Z,31.90
2022-08-20T13:02:33.219Z,31.50
2022-08-20T13:06:34.343Z,30.10
2022-08-20T13:10:39.831Z,29.60
2022-08-20T13:14:41.400Z,31.30
2022-08-20T13:18:42.517Z,32.20
2022-08-20T13:22:43.525Z,32.70
2022-08-20T13:26:45.477Z,33.30
2022-08-20T13:30:46.739Z,30.70
2022-08-20T13:34:47.867Z,30.50
2022-08-20T13:38:49.117Z,30.40
2022-08-20T13:42:51.069Z,32.40
2022-08-20T13:46:53.520Z,32.90
2022-08-20T13:50:54.568Z,32.90
2022-08-20T13:54:56.238Z,32.20
2022-08-20T13:58:57.337Z,30.80
2022-08-20T14:03:00.309Z,29.70
2022-08-20T14:07:16.231Z,30.90
2022-08-20T14:11:17.843Z,31.40
2022-08-20T14:15:19.538Z,31.00
2022-08-20T14:19:20.529Z,30.60
2022-08-20T14:23:21.946Z,30.60
2022-08-20T14:27:26.546Z,31.90
2022-08-20T14:31:26.704Z,31.20
2022-08-20T14:35:27.703Z,31.60
2022-08-20T14:39:28.817Z,30.10
2022-08-20T14:43:29.859Z,32.20
2022-08-20T14:47:34.602Z,31.30
2022-08-20T14:51:36.749Z,31.10
2022-08-20T14:55:37.858Z,30.30
2022-08-20T14:59:39.687Z,31.50
2022-08-20T15:03:40.714Z,32.00
2022-08-20T15:07:45.123Z,31.40
2022-08-20T15:11:48.518Z,31.70
2022-08-20T15:15:49.652Z,31.00
2022-08-20T15:19:51.532Z,31.30
2022-08-20T15:23:52.666Z,31.40
2022-08-20T15:27:58.318Z,31.30
2022-08-20T15:32:00.262Z,31.20
2022-08-20T15:36:01.608Z,29.70
2022-08-20T15:40:08.355Z,29.90
2022-08-20T15:44:09.461Z,30.30
2022-08-20T15:48:16.577Z,29.50
2022-08-20T15:52:18.047Z,28.50
2022-08-20T15:56:45.457Z,28.70
2022-08-20T16:00:53.329Z,29.20
2022-08-20T16:05:02.956Z,28.30
2022-08-20T16:09:10.760Z,27.70
2022-08-20T16:13:27.450Z,26.70
2022-08-20T16:17:33.412Z,26.60
2022-08-20T16:21:38.316Z,28.10
2022-08-20T16:26:07.361Z,28.20
2022-08-20T16:30:12.105Z,27.00
2022-08-20T16:34:33.540Z,27.40
2022-08-20T16:38:41.930Z,27.80
2022-08-20T16:42:47.137Z,28.40
2022-08-20T16:47:13.809Z,27.00
2022-08-20T16:51:22.868Z,25.00
2022-08-20T16:55:23.968Z,26.70
2022-08-20T16:59:26.862Z,26.90
2022-08-20T17:03:39.157Z,26.70
2022-08-20T17:07:46.212Z,27.00
2022-08-20T17:11:47.598Z,26.40
2022-08-20T17:15:58.129Z,26.60
2022-08-20T17:20:20.209Z,26.70
2022-08-20T17:24:24.829Z,27.20
2022-08-20T17:28:26.125Z,26.20
2022-08-20T17:32:28.644Z,26.90
2022-08-20T17:36:30.649Z,25.90
2022-08-20T17:40:43.110Z,25.60
2022-08-20T17:44:53.946Z,25.40
2022-08-20T17:48:58.953Z,25.40
2022-08-20T17:53:13.634Z,25.40
2022-08-20T17:57:18.137Z,25.20
2022-08-20T18:01:21.025Z,25.10
2022-08-20T18:05:22.648Z,24.80
2022-08-20T18:09:39.498Z,25.40
2022-08-20T18:14:04.130Z,25.10
2022-08-20T18:18:24.411Z,25.70
2022-08-20T18:22:31.436Z,24.70
2022-08-20T18:26:46.032Z,25.10
2022-08-20T18:30:59.938Z,24.30
2022-08-20T18:35:20.193Z,24.70
2022-08-20T18:39:31.148Z,25.10
2022-08-20T18:43:32.770Z,24.20
2022-08-20T18:47:37.667Z,23.80
2022-08-20T18:51:45.476Z,23.80
2022-08-20T18:56:05.651Z,24.00
2022-08-20T19:00:13.766Z,23.90
2022-08-20T19:04:18.706Z,23.50
2022-08-20T19:08:22.287Z,23.50
2022-08-20T19:12:30.124Z,23.50
2022-08-20T19:16:35.046Z,23.90
2022-08-20T19:20:39.906Z,23.50
2022-08-20T19:24:43.754Z,23.40
2022-08-20T19:28:48.766Z,23.70
2022-08-20T19:32:52.287Z,23.40
2022-08-20T19:37:27.684Z,23.30
2022-08-20T19:41:11.280Z,22.80
2022-08-20T19:45:19.091Z,23.00
2022-08-20T19:49:43.022Z,22.90
2022-08-20T19:53:45.748Z,23.30
2022-08-20T19:57:53.075Z,23.30
2022-08-20T20:01:58.314Z,23.30
2022-08-20T20:06:03.147Z,23.10
2022-08-20T20:10:09.549Z,22.60
2022-08-20T20:14:13.274Z,22.00
2022-08-20T20:18:14.382Z,22.40
2022-08-20T20:22:28.635Z,21.50
2022-08-20T20:26:36.237Z,21.30
2022-08-20T20:31:02.066Z,22.30
2022-08-20T20:35:05.661Z,22.10
2022-08-20T20:39:14.637Z,21.80
2022-08-20T20:43:25.293Z,21.80
2022-08-20T20:47:32.818Z,22.00
2022-08-20T20:51:41.516Z,21.90
2022-08-20T20:55:46.361Z,22.10
2022-08-20T20:59:49.746Z,22.00
2022-08-20T21:03:50.784Z,22.00
2022-08-20T21:07:55.338Z,22.00
2022-08-20T21:11:56.466Z,22.20
2022-08-20T21:15:57.481Z,22.30
2022-08-20T21:20:01.923Z,21.70
2022-08-20T21:24:04.408Z,22.20
2022-08-20T21:28:07.137Z,22.20
2022-08-20T21:32:08.734Z,22.00
2022-08-20T21:36:11.632Z,21.40
2022-08-20T21:40:13.555Z,21.70
2022-08-20T21:44:21.422Z,21.80
2022-08-20T21:48:22.964Z,21.50
2022-08-20T21:52:24.172Z,21.40
2022-08-20T21:56:28.317Z,21.00
2022-08-20T22:00:49.932Z,19.80
2022-08-20T22:04:51.172Z,20.50
2022-08-20T22:08:54.109Z,19.80
2022-08-20T22:12:55.306Z,19.40
2022-08-20T22:16:56.488Z,20.90
2022-08-20T22:20:57.694Z,21.10
2022-08-20T22:24:59.508Z,21.10
2022-08-20T22:29:01.503Z,20.60
2022-08-20T22:33:05.818Z,19.20
2022-08-20T22:37:07.438Z,18.90
2022-08-20T22:41:09.842Z,19.00
2022-08-20T22:45:14.796Z,20.00
2022-08-20T22:49:16.900Z,20.20
2022-08-20T22:53:20.225Z,19.70
2022-08-20T22:57:21.335Z,19.20
2022-08-20T23:01:22.362Z,18.60
2022-08-20T23:05:26.607Z,19.80
2022-08-20T23:09:28.393Z,19.60
2022-08-20T23:13:31.435Z,19.50
2022-08-20T23:17:33.717Z,19.70
2022-08-20T23:21:34.714Z,19.90
2022-08-20T23:25:35.738Z,19.70
2022-08-20T23:29:40.286Z,19.70
2022-08-20T23:33:44.685Z,19.70
2022-08-20T23:37:48.048Z,19.50
2022-08-20T23:41:49.362Z,18.20
2022-08-20T23:45:50.458Z,18.30
2022-08-20T23:49:51.554Z,18.70
2022-08-20T23:53:52.569Z,18.00
2022-08-20T23:57:53.661Z,19.10
